sensor_id;sensor_type;location;lat;lon;timestamp;P1;durP1;ratioP1;P2;durP2;ratioP2
3643;SDS011;1838;50.742;7.158;2023-10-08T00:01:34;8.00;;;4.30;;
3643;SDS011;1838;50.742;7.158;2023-10-08T00:04:00;7.17;;;4.77;;
3643;SDS011;1838;50.742;7.158;2023-10-08T00:06:29;10.87;;;5.00;;
3643;SDS011;1838;50.742;7.158;2023-10-08T00:08:55;8.63;;;4.53;;
3643;SDS011;1838;50.742;7.158;2023-10-08T00:11:25;13.23;;;4.93;;
3643;SDS011;1838;50.742;7.158;2023-10-08T00:13:56;12.73;;;4.53;;
3643;SDS011;1838;50.742;7.158;2023-10-08T00:16:22;13.27;;;4.80;;
3643;SDS011;1838;50.742;7.158;2023-10-08T00:18:47;9.60;;;4.17;;
3643;SDS011;1838;50.742;7.158;2023-10-08T00:21:19;8.70;;;4.73;;
3643;SDS011;1838;50.742;7.158;2023-10-08T00:23:51;9.40;;;4.57;;
3643;SDS011;1838;50.742;7.158;2023-10-08T00:26:22;11.60;;;4.90;;
3643;SDS011;1838;50.742;7.158;2023-10-08T00:28:58;7.57;;;4.63;;
3643;SDS011;1838;50.742;7.158;2023-10-08T00:31:26;10.43;;;4.37;;
3643;SDS011;1838;50.742;7.158;2023-10-08T00:33:56;13.00;;;4.77;;
3643;SDS011;1838;50.742;7.158;2023-10-08T00:36:22;11.47;;;5.07;;
3643;SDS011;1838;50.742;7.158;2023-10-08T00:38:49;7.13;;;4.57;;
3643;SDS011;1838;50.742;7.158;2023-10-08T00:41:17;8.53;;;4.23;;
3643;SDS011;1838;50.742;7.158;2023-10-08T00:43:53;6.80;;;4.43;;
3643;SDS011;1838;50.742;7.158;2023-10-08T00:46:21;6.33;;;4.00;;
3643;SDS011;1838;50.742;7.158;2023-10-08T00:48:50;11.17;;;4.60;;
3643;SDS011;1838;50.742;7.158;2023-10-08T00:51:21;6.77;;;4.40;;
3643;SDS011;1838;50.742;7.158;2023-10-08T00:53:52;10.03;;;4.30;;
3643;SDS011;1838;50.742;7.158;2023-10-08T00:56:25;7.70;;;4.77;;
3643;SDS011;1838;50.742;7.158;2023-10-08T00:59:09;11.97;;;4.40;;
3643;SDS011;1838;50.742;7.158;2023-10-08T01:01:38;8.73;;;5.13;;
3643;SDS011;1838;50.742;7.158;2023-10-08T01:04:04;8.43;;;3.90;;
3643;SDS011;1838;50.742;7.158;2023-10-08T01:06:36;9.40;;;5.20;;
3643;SDS011;1838;50.742;7.158;2023-10-08T01:09:04;10.43;;;4.90;;
3643;SDS011;1838;50.742;7.158;2023-10-08T01:11:42;7.90;;;4.53;;
3643;SDS011;1838;50.742;7.158;2023-10-08T01:14:14;12.60;;;5.60;;
3643;SDS011;1838;50.742;7.158;2023-10-08T01:16:40;5.90;;;3.90;;
3643;SDS011;1838;50.742;7.158;2023-10-08T01:19:11;14.57;;;5.23;;
3643;SDS011;1838;50.742;7.158;2023-10-08T01:21:39;6.37;;;4.40;;
3643;SDS011;1838;50.742;7.158;2023-10-08T01:24:05;8.90;;;4.30;;
3643;SDS011;1838;50.742;7.158;2023-10-08T01:26:32;8.93;;;4.87;;
3643;SDS011;1838;50.742;7.158;2023-10-08T01:28:59;8.70;;;4.10;;
3643;SDS011;1838;50.742;7.158;2023-10-08T01:31:32;10.87;;;5.03;;
3643;SDS011;1838;50.742;7.158;2023-10-08T01:33:57;11.10;;;5.07;;
3643;SDS011;1838;50.742;7.158;2023-10-08T01:36:26;12.20;;;4.77;;
3643;SDS011;1838;50.742;7.158;2023-10-08T01:38:51;9.97;;;5.30;;
3643;SDS011;1838;50.742;7.158;2023-10-08T01:41:19;8.87;;;4.77;;
3643;SDS011;1838;50.742;7.158;2023-10-08T01:43:47;8.43;;;5.17;;
3643;SDS011;1838;50.742;7.158;2023-10-08T01:46:14;10.80;;;4.60;;
3643;SDS011;1838;50.742;7.158;2023-10-08T01:48:41;12.43;;;5.13;;
3643;SDS011;1838;50.742;7.158;2023-10-08T01:51:09;11.17;;;4.27;;
3643;SDS011;1838;50.742;7.158;2023-10-08T01:53:39;12.40;;;4.50;;
3643;SDS011;1838;50.742;7.158;2023-10-08T01:56:06;5.60;;;4.30;;
3643;SDS011;1838;50.742;7.158;2023-10-08T01:58:31;5.70;;;4.43;;
3643;SDS011;1838;50.742;7.158;2023-10-08T02:00:59;7.83;;;4.23;;
3643;SDS011;1838;50.742;7.158;2023-10-08T02:03:25;7.93;;;4.73;;
3643;SDS011;1838;50.742;7.158;2023-10-08T02:05:52;6.20;;;4.13;;
3643;SDS011;1838;50.742;7.158;2023-10-08T02:08:24;12.33;;;4.77;;
3643;SDS011;1838;50.742;7.158;2023-10-08T02:10:51;10.67;;;4.57;;
3643;SDS011;1838;50.742;7.158;2023-10-08T02:13:17;7.80;;;4.90;;
3643;SDS011;1838;50.742;7.158;2023-10-08T02:15:44;17.50;;;5.30;;
3643;SDS011;1838;50.742;7.158;2023-10-08T02:18:12;6.77;;;4.23;;
3643;SDS011;1838;50.742;7.158;2023-10-08T02:20:41;12.33;;;5.10;;
3643;SDS011;1838;50.742;7.158;2023-10-08T02:23:08;10.10;;;4.53;;
3643;SDS011;1838;50.742;7.158;2023-10-08T02:25:36;12.63;;;4.27;;
3643;SDS011;1838;50.742;7.158;2023-10-08T02:28:05;8.37;;;4.00;;
3643;SDS011;1838;50.742;7.158;2023-10-08T02:30:34;11.03;;;4.17;;
3643;SDS011;1838;50.742;7.158;2023-10-08T02:33:01;12.43;;;4.30;;
3643;SDS011;1838;50.742;7.158;2023-10-08T02:35:27;8.07;;;4.70;;
3643;SDS011;1838;50.742;7.158;2023-10-08T02:37:52;5.10;;;4.00;;
3643;SDS011;1838;50.742;7.158;2023-10-08T02:40:19;6.30;;;3.70;;
3643;SDS011;1838;50.742;7.158;2023-10-08T02:42:52;8.70;;;3.97;;
3643;SDS011;1838;50.742;7.158;2023-10-08T02:45:24;11.97;;;4.10;;
3643;SDS011;1838;50.742;7.158;2023-10-08T02:47:51;9.33;;;5.33;;
3643;SDS011;1838;50.742;7.158;2023-10-08T02:50:17;7.77;;;4.80;;
3643;SDS011;1838;50.742;7.158;2023-10-08T02:52:47;7.03;;;4.07;;
3643;SDS011;1838;50.742;7.158;2023-10-08T02:55:16;6.37;;;4.70;;
3643;SDS011;1838;50.742;7.158;2023-10-08T02:57:59;14.93;;;5.00;;
3643;SDS011;1838;50.742;7.158;2023-10-08T03:00:27;10.43;;;4.47;;
3643;SDS011;1838;50.742;7.158;2023-10-08T03:02:55;10.97;;;5.40;;
3643;SDS011;1838;50.742;7.158;2023-10-08T03:05:22;10.20;;;5.67;;
3643;SDS011;1838;50.742;7.158;2023-10-08T03:07:47;9.57;;;5.47;;
3643;SDS011;1838;50.742;7.158;2023-10-08T03:10:16;13.90;;;6.13;;
3643;SDS011;1838;50.742;7.158;2023-10-08T03:12:45;11.27;;;5.97;;
3643;SDS011;1838;50.742;7.158;2023-10-08T03:15:12;9.07;;;5.37;;
3643;SDS011;1838;50.742;7.158;2023-10-08T03:17:40;13.20;;;5.50;;
3643;SDS011;1838;50.742;7.158;2023-10-08T03:20:16;15.90;;;6.33;;
3643;SDS011;1838;50.742;7.158;2023-10-08T03:23:02;11.27;;;6.67;;
3643;SDS011;1838;50.742;7.158;2023-10-08T03:25:37;10.10;;;6.30;;
3643;SDS011;1838;50.742;7.158;2023-10-08T03:28:11;17.07;;;6.53;;
3643;SDS011;1838;50.742;7.158;2023-10-08T03:30:38;13.00;;;7.17;;
3643;SDS011;1838;50.742;7.158;2023-10-08T03:33:18;13.53;;;6.47;;
3643;SDS011;1838;50.742;7.158;2023-10-08T03:35:48;10.03;;;5.93;;
3643;SDS011;1838;50.742;7.158;2023-10-08T03:38:20;12.50;;;6.07;;
3643;SDS011;1838;50.742;7.158;2023-10-08T03:40:53;15.87;;;6.70;;
3643;SDS011;1838;50.742;7.158;2023-10-08T03:43:29;11.73;;;6.13;;
3643;SDS011;1838;50.742;7.158;2023-10-08T03:46:09;8.60;;;5.63;;
3643;SDS011;1838;50.742;7.158;2023-10-08T03:48:41;16.97;;;6.77;;
3643;SDS011;1838;50.742;7.158;2023-10-08T03:51:09;10.00;;;4.90;;
3643;SDS011;1838;50.742;7.158;2023-10-08T03:53:37;10.57;;;6.13;;
3643;SDS011;1838;50.742;7.158;2023-10-08T03:56:24;9.83;;;5.23;;
3643;SDS011;1838;50.742;7.158;2023-10-08T03:58:51;8.83;;;4.67;;
3643;SDS011;1838;50.742;7.158;2023-10-08T04:01:20;8.30;;;5.00;;
3643;SDS011;1838;50.742;7.158;2023-10-08T04:03:46;10.33;;;5.30;;
3643;SDS011;1838;50.742;7.158;2023-10-08T04:06:21;7.00;;;4.90;;
3643;SDS011;1838;50.742;7.158;2023-10-08T04:08:53;20.33;;;4.80;;
3643;SDS011;1838;50.742;7.158;2023-10-08T04:11:35;7.90;;;4.50;;
3643;SDS011;1838;50.742;7.158;2023-10-08T04:14:03;7.70;;;4.00;;
3643;SDS011;1838;50.742;7.158;2023-10-08T04:16:29;11.30;;;4.80;;
3643;SDS011;1838;50.742;7.158;2023-10-08T04:18:56;9.77;;;4.43;;
3643;SDS011;1838;50.742;7.158;2023-10-08T04:21:22;6.83;;;4.90;;
3643;SDS011;1838;50.742;7.158;2023-10-08T04:23:54;11.60;;;5.50;;
3643;SDS011;1838;50.742;7.158;2023-10-08T04:26:22;12.27;;;4.90;;
3643;SDS011;1838;50.742;7.158;2023-10-08T04:28:54;12.20;;;5.30;;
3643;SDS011;1838;50.742;7.158;2023-10-08T04:31:22;11.83;;;5.17;;
3643;SDS011;1838;50.742;7.158;2023-10-08T04:34:11;8.17;;;4.93;;
3643;SDS011;1838;50.742;7.158;2023-10-08T04:36:47;7.70;;;5.00;;
3643;SDS011;1838;50.742;7.158;2023-10-08T04:39:19;10.63;;;5.17;;
3643;SDS011;1838;50.742;7.158;2023-10-08T04:41:56;8.70;;;5.40;;
3643;SDS011;1838;50.742;7.158;2023-10-08T04:44:24;9.90;;;6.27;;
3643;SDS011;1838;50.742;7.158;2023-10-08T04:46:51;13.60;;;6.07;;
3643;SDS011;1838;50.742;7.158;2023-10-08T04:49:18;8.07;;;5.20;;
3643;SDS011;1838;50.742;7.158;2023-10-08T04:51:56;8.53;;;4.90;;
3643;SDS011;1838;50.742;7.158;2023-10-08T04:54:41;9.23;;;4.70;;
3643;SDS011;1838;50.742;7.158;2023-10-08T04:57:16;15.77;;;5.47;;
3643;SDS011;1838;50.742;7.158;2023-10-08T04:59:42;18.70;;;5.27;;
3643;SDS011;1838;50.742;7.158;2023-10-08T05:02:08;9.40;;;4.97;;
3643;SDS011;1838;50.742;7.158;2023-10-08T05:04:52;10.80;;;4.97;;
3643;SDS011;1838;50.742;7.158;2023-10-08T05:07:25;9.13;;;6.00;;
3643;SDS011;1838;50.742;7.158;2023-10-08T05:10:09;9.30;;;5.30;;
3643;SDS011;1838;50.742;7.158;2023-10-08T05:12:56;10.83;;;5.23;;
3643;SDS011;1838;50.742;7.158;2023-10-08T05:15:31;11.67;;;5.77;;
3643;SDS011;1838;50.742;7.158;2023-10-08T05:18:23;8.60;;;4.73;;
3643;SDS011;1838;50.742;7.158;2023-10-08T05:21:02;9.23;;;4.90;;
3643;SDS011;1838;50.742;7.158;2023-10-08T05:23:40;12.20;;;5.33;;
3643;SDS011;1838;50.742;7.158;2023-10-08T05:26:18;9.23;;;4.83;;
3643;SDS011;1838;50.742;7.158;2023-10-08T05:28:56;8.17;;;4.70;;
3643;SDS011;1838;50.742;7.158;2023-10-08T05:31:47;7.50;;;5.30;;
3643;SDS011;1838;50.742;7.158;2023-10-08T05:34:33;11.40;;;5.73;;
3643;SDS011;1838;50.742;7.158;2023-10-08T05:37:07;13.37;;;5.57;;
3643;SDS011;1838;50.742;7.158;2023-10-08T05:39:32;7.97;;;4.60;;
3643;SDS011;1838;50.742;7.158;2023-10-08T05:42:04;6.73;;;5.07;;
3643;SDS011;1838;50.742;7.158;2023-10-08T05:44:42;8.40;;;4.90;;
3643;SDS011;1838;50.742;7.158;2023-10-08T05:47:31;12.00;;;4.63;;
3643;SDS011;1838;50.742;7.158;2023-10-08T05:49:58;10.03;;;5.53;;
3643;SDS011;1838;50.742;7.158;2023-10-08T05:52:42;7.30;;;4.93;;
3643;SDS011;1838;50.742;7.158;2023-10-08T05:55:23;10.17;;;5.93;;
3643;SDS011;1838;50.742;7.158;2023-10-08T05:57:52;11.63;;;5.60;;
3643;SDS011;1838;50.742;7.158;2023-10-08T06:00:44;11.33;;;5.70;;
3643;SDS011;1838;50.742;7.158;2023-10-08T06:03:29;11.20;;;5.63;;
3643;SDS011;1838;50.742;7.158;2023-10-08T06:06:02;9.77;;;4.50;;
3643;SDS011;1838;50.742;7.158;2023-10-08T06:08:34;12.20;;;5.80;;
3643;SDS011;1838;50.742;7.158;2023-10-08T06:11:19;14.53;;;6.07;;
3643;SDS011;1838;50.742;7.158;2023-10-08T06:14:01;11.30;;;4.63;;
3643;SDS011;1838;50.742;7.158;2023-10-08T06:16:28;7.10;;;4.97;;
3643;SDS011;1838;50.742;7.158;2023-10-08T06:19:06;13.73;;;5.60;;
3643;SDS011;1838;50.742;7.158;2023-10-08T06:21:36;14.23;;;4.97;;
3643;SDS011;1838;50.742;7.158;2023-10-08T06:24:04;10.73;;;5.60;;
3643;SDS011;1838;50.742;7.158;2023-10-08T06:26:34;8.73;;;5.23;;
3643;SDS011;1838;50.742;7.158;2023-10-08T06:29:07;8.67;;;4.70;;
3643;SDS011;1838;50.742;7.158;2023-10-08T06:31:52;14.80;;;5.57;;
3643;SDS011;1838;50.742;7.158;2023-10-08T06:34:20;7.47;;;4.73;;
3643;SDS011;1838;50.742;7.158;2023-10-08T06:36:50;10.53;;;4.87;;
3643;SDS011;1838;50.742;7.158;2023-10-08T06:39:20;20.40;;;4.80;;
3643;SDS011;1838;50.742;7.158;2023-10-08T06:41:51;7.13;;;4.90;;
3643;SDS011;1838;50.742;7.158;2023-10-08T06:44:22;10.83;;;5.70;;
3643;SDS011;1838;50.742;7.158;2023-10-08T06:46:47;24.83;;;5.90;;
3643;SDS011;1838;50.742;7.158;2023-10-08T06:49:13;6.90;;;5.03;;
3643;SDS011;1838;50.742;7.158;2023-10-08T06:51:39;10.30;;;6.20;;
3643;SDS011;1838;50.742;7.158;2023-10-08T06:54:08;10.80;;;6.90;;
3643;SDS011;1838;50.742;7.158;2023-10-08T06:56:39;12.23;;;8.10;;
3643;SDS011;1838;50.742;7.158;2023-10-08T06:59:11;12.20;;;7.50;;
3643;SDS011;1838;50.742;7.158;2023-10-08T07:01:36;21.17;;;6.97;;
3643;SDS011;1838;50.742;7.158;2023-10-08T07:04:05;11.90;;;6.30;;
3643;SDS011;1838;50.742;7.158;2023-10-08T07:06:32;8.13;;;5.67;;
3643;SDS011;1838;50.742;7.158;2023-10-08T07:08:59;10.27;;;6.37;;
3643;SDS011;1838;50.742;7.158;2023-10-08T07:11:30;10.60;;;6.57;;
3643;SDS011;1838;50.742;7.158;2023-10-08T07:14:00;12.03;;;5.97;;
3643;SDS011;1838;50.742;7.158;2023-10-08T07:16:26;15.27;;;5.80;;
3643;SDS011;1838;50.742;7.158;2023-10-08T07:18:53;15.17;;;6.30;;
3643;SDS011;1838;50.742;7.158;2023-10-08T07:21:20;10.00;;;5.40;;
3643;SDS011;1838;50.742;7.158;2023-10-08T07:24:03;11.33;;;5.53;;
3643;SDS011;1838;50.742;7.158;2023-10-08T07:26:34;13.13;;;6.17;;
3643;SDS011;1838;50.742;7.158;2023-10-08T07:29:05;9.37;;;5.70;;
3643;SDS011;1838;50.742;7.158;2023-10-08T07:31:34;11.23;;;7.00;;
3643;SDS011;1838;50.742;7.158;2023-10-08T07:34:01;7.73;;;4.97;;
3643;SDS011;1838;50.742;7.158;2023-10-08T07:36:40;10.93;;;5.80;;
3643;SDS011;1838;50.742;7.158;2023-10-08T07:39:14;20.73;;;6.00;;
3643;SDS011;1838;50.742;7.158;2023-10-08T07:41:52;12.37;;;5.23;;
3643;SDS011;1838;50.742;7.158;2023-10-08T07:44:19;9.73;;;5.70;;
3643;SDS011;1838;50.742;7.158;2023-10-08T07:46:49;17.13;;;6.17;;
3643;SDS011;1838;50.742;7.158;2023-10-08T07:49:15;14.50;;;5.80;;
3643;SDS011;1838;50.742;7.158;2023-10-08T07:51:42;14.63;;;5.87;;
3643;SDS011;1838;50.742;7.158;2023-10-08T07:54:15;13.87;;;6.80;;
3643;SDS011;1838;50.742;7.158;2023-10-08T07:56:48;10.43;;;5.70;;
3643;SDS011;1838;50.742;7.158;2023-10-08T07:59:16;9.83;;;5.30;;
3643;SDS011;1838;50.742;7.158;2023-10-08T08:01:42;11.60;;;5.43;;
3643;SDS011;1838;50.742;7.158;2023-10-08T08:04:11;13.33;;;5.47;;
3643;SDS011;1838;50.742;7.158;2023-10-08T08:06:50;7.93;;;4.80;;
3643;SDS011;1838;50.742;7.158;2023-10-08T08:09:17;10.10;;;6.03;;
3643;SDS011;1838;50.742;7.158;2023-10-08T08:11:44;12.60;;;4.67;;
3643;SDS011;1838;50.742;7.158;2023-10-08T08:14:14;16.17;;;5.13;;
3643;SDS011;1838;50.742;7.158;2023-10-08T08:16:42;9.93;;;5.47;;
3643;SDS011;1838;50.742;7.158;2023-10-08T08:19:11;8.30;;;5.30;;
3643;SDS011;1838;50.742;7.158;2023-10-08T08:21:38;10.73;;;5.00;;
3643;SDS011;1838;50.742;7.158;2023-10-08T08:24:10;14.37;;;5.50;;
3643;SDS011;1838;50.742;7.158;2023-10-08T08:26:38;8.10;;;5.50;;
3643;SDS011;1838;50.742;7.158;2023-10-08T08:29:05;10.97;;;5.30;;
3643;SDS011;1838;50.742;7.158;2023-10-08T08:31:34;17.80;;;5.37;;
3643;SDS011;1838;50.742;7.158;2023-10-08T08:34:01;15.63;;;5.70;;
3643;SDS011;1838;50.742;7.158;2023-10-08T08:36:28;8.63;;;5.07;;
3643;SDS011;1838;50.742;7.158;2023-10-08T08:38:57;12.50;;;5.00;;
3643;SDS011;1838;50.742;7.158;2023-10-08T08:41:23;13.43;;;6.20;;
3643;SDS011;1838;50.742;7.158;2023-10-08T08:43:52;15.37;;;5.57;;
3643;SDS011;1838;50.742;7.158;2023-10-08T08:46:28;11.83;;;5.80;;
3643;SDS011;1838;50.742;7.158;2023-10-08T08:48:57;13.33;;;5.70;;
3643;SDS011;1838;50.742;7.158;2023-10-08T08:51:35;13.70;;;4.60;;
3643;SDS011;1838;50.742;7.158;2023-10-08T08:54:01;7.43;;;5.23;;
3643;SDS011;1838;50.742;7.158;2023-10-08T08:56:32;15.37;;;5.60;;
3643;SDS011;1838;50.742;7.158;2023-10-08T08:59:00;8.00;;;4.70;;
3643;SDS011;1838;50.742;7.158;2023-10-08T09:01:26;8.90;;;4.90;;
3643;SDS011;1838;50.742;7.158;2023-10-08T09:04:00;9.00;;;5.20;;
3643;SDS011;1838;50.742;7.158;2023-10-08T09:06:27;9.77;;;5.97;;
3643;SDS011;1838;50.742;7.158;2023-10-08T09:08:52;10.97;;;5.40;;
3643;SDS011;1838;50.742;7.158;2023-10-08T09:11:20;12.27;;;5.90;;
3643;SDS011;1838;50.742;7.158;2023-10-08T09:13:46;15.07;;;5.50;;
3643;SDS011;1838;50.742;7.158;2023-10-08T09:16:13;10.00;;;6.00;;
3643;SDS011;1838;50.742;7.158;2023-10-08T09:18:43;15.90;;;6.27;;
3643;SDS011;1838;50.742;7.158;2023-10-08T09:21:11;7.73;;;5.17;;
3643;SDS011;1838;50.742;7.158;2023-10-08T09:23:40;10.63;;;5.70;;
3643;SDS011;1838;50.742;7.158;2023-10-08T09:26:09;11.03;;;5.93;;
3643;SDS011;1838;50.742;7.158;2023-10-08T09:28:36;11.63;;;6.60;;
3643;SDS011;1838;50.742;7.158;2023-10-08T09:31:04;12.50;;;6.37;;
3643;SDS011;1838;50.742;7.158;2023-10-08T09:33:31;12.93;;;6.33;;
3643;SDS011;1838;50.742;7.158;2023-10-08T09:35:58;10.60;;;5.83;;
3643;SDS011;1838;50.742;7.158;2023-10-08T09:38:28;12.27;;;5.00;;
3643;SDS011;1838;50.742;7.158;2023-10-08T09:40:55;20.00;;;6.57;;
3643;SDS011;1838;50.742;7.158;2023-10-08T09:43:22;9.90;;;5.63;;
3643;SDS011;1838;50.742;7.158;2023-10-08T09:45:53;13.90;;;5.90;;
3643;SDS011;1838;50.742;7.158;2023-10-08T09:48:22;14.70;;;6.53;;
3643;SDS011;1838;50.742;7.158;2023-10-08T09:50:52;16.70;;;6.77;;
3643;SDS011;1838;50.742;7.158;2023-10-08T09:53:22;13.50;;;6.87;;
3643;SDS011;1838;50.742;7.158;2023-10-08T09:55:57;12.27;;;6.67;;
3643;SDS011;1838;50.742;7.158;2023-10-08T09:58:23;16.47;;;7.67;;
3643;SDS011;1838;50.742;7.158;2023-10-08T10:00:54;15.83;;;7.17;;
3643;SDS011;1838;50.742;7.158;2023-10-08T10:03:22;13.50;;;6.70;;
3643;SDS011;1838;50.742;7.158;2023-10-08T10:05:51;15.80;;;7.33;;
3643;SDS011;1838;50.742;7.158;2023-10-08T10:08:17;14.20;;;7.03;;
3643;SDS011;1838;50.742;7.158;2023-10-08T10:10:43;11.00;;;7.17;;
3643;SDS011;1838;50.742;7.158;2023-10-08T10:13:12;13.33;;;8.03;;
3643;SDS011;1838;50.742;7.158;2023-10-08T10:15:39;16.23;;;6.67;;
3643;SDS011;1838;50.742;7.158;2023-10-08T10:23:44;20.10;;;8.40;;
3643;SDS011;1838;50.742;7.158;2023-10-08T10:26:27;17.17;;;8.03;;
3643;SDS011;1838;50.742;7.158;2023-10-08T10:31:43;15.57;;;7.90;;
3643;SDS011;1838;50.742;7.158;2023-10-08T10:34:11;24.50;;;8.73;;
3643;SDS011;1838;50.742;7.158;2023-10-08T10:36:41;21.80;;;9.10;;
3643;SDS011;1838;50.742;7.158;2023-10-08T10:39:11;19.70;;;8.70;;
3643;SDS011;1838;50.742;7.158;2023-10-08T10:41:51;29.50;;;9.50;;
3643;SDS011;1838;50.742;7.158;2023-10-08T10:44:26;21.43;;;9.17;;
3643;SDS011;1838;50.742;7.158;2023-10-08T10:46:54;19.70;;;9.97;;
3643;SDS011;1838;50.742;7.158;2023-10-08T10:49:40;19.73;;;8.57;;
3643;SDS011;1838;50.742;7.158;2023-10-08T10:52:33;34.10;;;11.17;;
3643;SDS011;1838;50.742;7.158;2023-10-08T10:55:17;27.17;;;8.93;;
3643;SDS011;1838;50.742;7.158;2023-10-08T10:57:47;23.07;;;9.97;;
3643;SDS011;1838;50.742;7.158;2023-10-08T11:00:21;25.80;;;8.90;;
3643;SDS011;1838;50.742;7.158;2023-10-08T11:02:57;23.83;;;10.23;;
3643;SDS011;1838;50.742;7.158;2023-10-08T11:05:31;17.50;;;9.57;;
3643;SDS011;1838;50.742;7.158;2023-10-08T11:08:02;23.20;;;8.73;;
3643;SDS011;1838;50.742;7.158;2023-10-08T11:10:32;26.70;;;10.43;;
3643;SDS011;1838;50.742;7.158;2023-10-08T11:13:03;26.00;;;11.20;;
3643;SDS011;1838;50.742;7.158;2023-10-08T11:15:30;27.70;;;10.13;;
3643;SDS011;1838;50.742;7.158;2023-10-08T11:18:11;23.23;;;10.63;;
3643;SDS011;1838;50.742;7.158;2023-10-08T11:20:40;20.37;;;9.83;;
3643;SDS011;1838;50.742;7.158;2023-10-08T11:26:01;26.17;;;10.90;;
3643;SDS011;1838;50.742;7.158;2023-10-08T11:28:29;23.10;;;10.90;;
3643;SDS011;1838;50.742;7.158;2023-10-08T11:31:00;25.03;;;9.70;;
3643;SDS011;1838;50.742;7.158;2023-10-08T11:33:33;22.43;;;10.50;;
3643;SDS011;1838;50.742;7.158;2023-10-08T11:36:01;15.87;;;8.50;;
3643;SDS011;1838;50.742;7.158;2023-10-08T11:38:27;26.03;;;9.77;;
3643;SDS011;1838;50.742;7.158;2023-10-08T11:41:09;21.27;;;10.47;;
3643;SDS011;1838;50.742;7.158;2023-10-08T11:43:46;20.67;;;9.77;;
3643;SDS011;1838;50.742;7.158;2023-10-08T11:46:25;20.50;;;10.57;;
3643;SDS011;1838;50.742;7.158;2023-10-08T11:48:51;25.67;;;10.87;;
3643;SDS011;1838;50.742;7.158;2023-10-08T11:51:17;28.07;;;13.17;;
3643;SDS011;1838;50.742;7.158;2023-10-08T11:53:43;28.97;;;11.50;;
3643;SDS011;1838;50.742;7.158;2023-10-08T11:56:10;23.40;;;10.37;;
3643;SDS011;1838;50.742;7.158;2023-10-08T11:58:39;25.70;;;10.70;;
3643;SDS011;1838;50.742;7.158;2023-10-08T12:01:05;21.50;;;10.57;;
3643;SDS011;1838;50.742;7.158;2023-10-08T12:03:31;26.07;;;11.97;;
3643;SDS011;1838;50.742;7.158;2023-10-08T12:05:59;21.90;;;11.20;;
3643;SDS011;1838;50.742;7.158;2023-10-08T12:08:25;19.90;;;10.70;;
3643;SDS011;1838;50.742;7.158;2023-10-08T12:10:53;22.03;;;9.90;;
3643;SDS011;1838;50.742;7.158;2023-10-08T12:13:19;21.80;;;10.80;;
3643;SDS011;1838;50.742;7.158;2023-10-08T12:15:51;29.73;;;10.33;;
3643;SDS011;1838;50.742;7.158;2023-10-08T12:18:17;25.87;;;11.00;;
3643;SDS011;1838;50.742;7.158;2023-10-08T12:20:52;19.73;;;11.50;;
3643;SDS011;1838;50.742;7.158;2023-10-08T12:23:19;24.57;;;10.97;;
3643;SDS011;1838;50.742;7.158;2023-10-08T12:25:51;16.80;;;9.47;;
3643;SDS011;1838;50.742;7.158;2023-10-08T12:28:21;23.40;;;10.83;;
3643;SDS011;1838;50.742;7.158;2023-10-08T12:30:48;19.83;;;9.93;;
3643;SDS011;1838;50.742;7.158;2023-10-08T12:33:17;22.17;;;11.60;;
3643;SDS011;1838;50.742;7.158;2023-10-08T12:35:46;24.43;;;11.60;;
3643;SDS011;1838;50.742;7.158;2023-10-08T12:38:12;14.53;;;9.70;;
3643;SDS011;1838;50.742;7.158;2023-10-08T12:40:39;25.73;;;12.63;;
3643;SDS011;1838;50.742;7.158;2023-10-08T12:43:18;22.73;;;10.67;;
3643;SDS011;1838;50.742;7.158;2023-10-08T12:45:53;30.80;;;14.57;;
3643;SDS011;1838;50.742;7.158;2023-10-08T12:50:53;24.53;;;12.50;;
3643;SDS011;1838;50.742;7.158;2023-10-08T12:53:30;27.53;;;12.53;;
3643;SDS011;1838;50.742;7.158;2023-10-08T12:56:00;34.87;;;15.50;;
3643;SDS011;1838;50.742;7.158;2023-10-08T12:58:30;30.87;;;14.63;;
3643;SDS011;1838;50.742;7.158;2023-10-08T13:01:03;34.10;;;13.63;;
3643;SDS011;1838;50.742;7.158;2023-10-08T13:03:31;28.00;;;12.73;;
3643;SDS011;1838;50.742;7.158;2023-10-08T13:05:57;21.10;;;11.53;;
3643;SDS011;1838;50.742;7.158;2023-10-08T13:08:30;31.93;;;13.70;;
3643;SDS011;1838;50.742;7.158;2023-10-08T13:10:57;25.67;;;11.60;;
3643;SDS011;1838;50.742;7.158;2023-10-08T13:13:26;29.63;;;13.80;;
3643;SDS011;1838;50.742;7.158;2023-10-08T13:15:52;30.87;;;13.30;;
3643;SDS011;1838;50.742;7.158;2023-10-08T13:18:21;31.43;;;13.57;;
3643;SDS011;1838;50.742;7.158;2023-10-08T13:20:47;19.60;;;11.23;;
3643;SDS011;1838;50.742;7.158;2023-10-08T13:23:13;33.10;;;13.93;;
3643;SDS011;1838;50.742;7.158;2023-10-08T13:25:38;26.33;;;12.00;;
3643;SDS011;1838;50.742;7.158;2023-10-08T13:28:05;31.73;;;13.57;;
3643;SDS011;1838;50.742;7.158;2023-10-08T13:30:32;35.00;;;14.17;;
3643;SDS011;1838;50.742;7.158;2023-10-08T13:32:58;25.27;;;13.00;;
3643;SDS011;1838;50.742;7.158;2023-10-08T13:35:24;32.90;;;14.50;;
3643;SDS011;1838;50.742;7.158;2023-10-08T13:37:50;32.70;;;12.93;;
3643;SDS011;1838;50.742;7.158;2023-10-08T13:40:17;23.73;;;13.10;;
3643;SDS011;1838;50.742;7.158;2023-10-08T13:42:42;32.13;;;13.77;;
3643;SDS011;1838;50.742;7.158;2023-10-08T13:45:08;31.43;;;12.50;;
3643;SDS011;1838;50.742;7.158;2023-10-08T13:47:34;26.80;;;14.50;;
3643;SDS011;1838;50.742;7.158;2023-10-08T13:50:00;23.50;;;11.90;;
3643;SDS011;1838;50.742;7.158;2023-10-08T13:52:31;31.67;;;13.20;;
3643;SDS011;1838;50.742;7.158;2023-10-08T13:54:58;28.50;;;13.57;;
3643;SDS011;1838;50.742;7.158;2023-10-08T13:57:25;38.47;;;13.87;;
3643;SDS011;1838;50.742;7.158;2023-10-08T13:59:51;28.60;;;12.63;;
3643;SDS011;1838;50.742;7.158;2023-10-08T14:02:18;21.70;;;11.87;;
3643;SDS011;1838;50.742;7.158;2023-10-08T14:04:46;29.87;;;13.83;;
3643;SDS011;1838;50.742;7.158;2023-10-08T14:07:15;35.50;;;13.00;;
3643;SDS011;1838;50.742;7.158;2023-10-08T14:09:42;26.00;;;13.20;;
3643;SDS011;1838;50.742;7.158;2023-10-08T14:12:10;34.90;;;13.63;;
3643;SDS011;1838;50.742;7.158;2023-10-08T14:14:36;26.90;;;13.07;;
3643;SDS011;1838;50.742;7.158;2023-10-08T14:17:06;29.70;;;13.93;;
3643;SDS011;1838;50.742;7.158;2023-10-08T14:19:32;23.93;;;11.80;;
3643;SDS011;1838;50.742;7.158;2023-10-08T14:22:24;32.60;;;13.33;;
3643;SDS011;1838;50.742;7.158;2023-10-08T14:24:51;25.73;;;13.57;;
3643;SDS011;1838;50.742;7.158;2023-10-08T14:27:26;21.50;;;12.60;;
3643;SDS011;1838;50.742;7.158;2023-10-08T14:30:04;26.20;;;13.77;;
3643;SDS011;1838;50.742;7.158;2023-10-08T14:32:32;22.33;;;11.40;;
3643;SDS011;1838;50.742;7.158;2023-10-08T14:34:58;29.97;;;12.33;;
3643;SDS011;1838;50.742;7.158;2023-10-08T14:37:23;22.57;;;11.47;;
3643;SDS011;1838;50.742;7.158;2023-10-08T14:40:07;24.47;;;11.77;;
3643;SDS011;1838;50.742;7.158;2023-10-08T14:42:52;35.63;;;12.00;;
3643;SDS011;1838;50.742;7.158;2023-10-08T14:45:20;32.67;;;13.43;;
3643;SDS011;1838;50.742;7.158;2023-10-08T14:47:51;24.33;;;11.50;;
3643;SDS011;1838;50.742;7.158;2023-10-08T14:50:21;27.40;;;11.27;;
3643;SDS011;1838;50.742;7.158;2023-10-08T14:52:48;28.10;;;11.70;;
3643;SDS011;1838;50.742;7.158;2023-10-08T14:55:14;29.03;;;10.97;;
3643;SDS011;1838;50.742;7.158;2023-10-08T14:57:41;30.10;;;11.77;;
3643;SDS011;1838;50.742;7.158;2023-10-08T15:00:10;24.47;;;12.57;;
3643;SDS011;1838;50.742;7.158;2023-10-08T15:02:37;28.60;;;12.87;;
3643;SDS011;1838;50.742;7.158;2023-10-08T15:05:06;25.40;;;12.00;;
3643;SDS011;1838;50.742;7.158;2023-10-08T15:07:32;35.40;;;12.33;;
3643;SDS011;1838;50.742;7.158;2023-10-08T15:09:59;20.20;;;11.97;;
3643;SDS011;1838;50.742;7.158;2023-10-08T15:12:26;24.00;;;12.30;;
3643;SDS011;1838;50.742;7.158;2023-10-08T15:14:52;24.00;;;10.70;;
3643;SDS011;1838;50.742;7.158;2023-10-08T15:17:18;21.17;;;10.10;;
3643;SDS011;1838;50.742;7.158;2023-10-08T15:19:43;23.90;;;11.50;;
3643;SDS011;1838;50.742;7.158;2023-10-08T15:22:11;18.53;;;11.53;;
3643;SDS011;1838;50.742;7.158;2023-10-08T15:24:37;20.30;;;10.73;;
3643;SDS011;1838;50.742;7.158;2023-10-08T15:27:04;29.50;;;13.53;;
3643;SDS011;1838;50.742;7.158;2023-10-08T15:29:30;37.13;;;14.20;;
3643;SDS011;1838;50.742;7.158;2023-10-08T15:31:58;21.40;;;12.17;;
3643;SDS011;1838;50.742;7.158;2023-10-08T15:34:24;23.40;;;12.60;;